Wheeler, Illinois
Current Conditions -  °F | °C
As of 1:15 PM on Thursday 23 Oct 2014 (Local Time) from K1H2 Reporting Station
Clear Clear  
Wind Chill: 60°   Ceiling: Unl
Heat Index: 60°   Visibility: 10mi
Dew Point: 40°   Wind: 5mph
Humidity: 47%   Direction: 170°S
Pressure: 30.18"   Gusts: NA
Location:  39.05°N, 88.32°W
Report Text: K1H2 231815Z AUTO 17004KT 10SM CLR 16/04 A3018 RMK AO2 T01580044
Loading
Personal Weather Stations






























Interactive Weather Map
Tropical Storm Tracking
New forecast layout! Learn more

10-Day Weather Forecast

Advertisements
Track Severe Weather on mobile